メインページ
METAR-TAF:

METAR-TAF

空港 :

パルマ・デ・マリョルカ, スペイン

パルマ・デ・マヨルカ空港

緯度: 39-33N, 経度: 002-44E, 海抜: 4m

現時点の気象観測

当レポートは10分前の14:30(UTC)に作成
南西の風 12kt、から西の間で変化する
気温 29°C
湿度 52%
気圧 1014 hPa
視程10km以上
高度2500ftの雲はほとんどない

METAR: LEPA 261430Z 22012KT 190V260 9999 FEW025 29/18 Q1014 NOSIG

時間: 16:40 (14:40 UTC)

予報

当レポートは3時間40分前の11:00(UTC)に作成
予報は26日の 12時(UTC)から 27日の 12時(UTC)まで有効
南西の風 10kt
視程10km以上
高度2500ftの雲は散在している
26日の 18時(UTC)から 26日の 21時(UTC)まで徐々に
変向風 4kt
27日の 10時(UTC)から 27日の 12時(UTC)まで徐々に
南西の風 10kt

TAF: LEPA 261100Z 2612/2712 22010KT 9999 SCT025 TX29/2612Z TN20/2706Z BECMG 2618/2621 VRB04KT BECMG 2710/2712 22010KT

4,000以上の空港の気象観測と天気予報(METAR報とTAF報)

利用可能な観測所は地図上に黄色い丸と赤い丸で示す。

丸の上にカーソルを重ねると観測所名を参照できる。

次にクリックすると気象観測と天気予報を参照できる。

マップの切り替え:黒色「×」印の緑ボタンをクリックして拡大、「-」印の緑ボタンをクリックして縮小、緑色の三角印をクリックして隣りの地図に切り替え


METAR-TAF: